Armourdale, North Dakota
Current Conditions -  °F | °C
As of 9:35 PM on Monday 20 Oct 2014 (Local Time) from K06D Reporting Station
Clear Clear  
Wind Chill:   Ceiling: Unl
Heat Index:   Visibility: 10mi
Dew Point:   Wind: 13mph
Humidity: 71%   Direction: 160°SSE
Pressure: 29.97"   Gusts: NA
Location:  48.8584°N, 99.1311°W
Report Text: K06D 210235Z AUTO 16011KT 10SM CLR 09/04 A2997 RMK AO2
Loading
Personal Weather Stations






























Interactive Weather Map
Tropical Storm Tracking
New forecast layout! Learn more

10-Day Weather Forecast

Advertisements
Track Severe Weather on mobile